createdAt,value
2023-03-27T00:00:16.836Z,98670.06
2023-03-27T00:03:20.559Z,98662.06
2023-03-27T00:06:25.118Z,98654.88
2023-03-27T00:09:29.740Z,98655.75
2023-03-27T00:12:33.563Z,98655.75
2023-03-27T00:15:36.768Z,98652.25
2023-03-27T00:18:39.589Z,98642.44
2023-03-27T00:21:42.412Z,98637.25
2023-03-27T00:24:45.772Z,98643.34
2023-03-27T00:27:49.231Z,98635.47
2023-03-27T00:30:52.205Z,98627.25
2023-03-27T00:33:56.031Z,98621.81
2023-03-27T00:36:58.981Z,98614.97
2023-03-27T00:40:02.096Z,98610.47
2023-03-27T00:43:20.624Z,98609.59
2023-03-27T00:46:40.663Z,98618.72
2023-03-27T00:49:43.566Z,98611.66
2023-03-27T00:52:48.312Z,98606.28
2023-03-27T00:55:53.318Z,98608.81
2023-03-27T00:59:00.322Z,98621.47
2023-03-27T01:02:04.407Z,98618.88
2023-03-27T01:05:08.415Z,98615.44
2023-03-27T01:08:11.847Z,98612.91
2023-03-27T01:11:35.942Z,98614.59
2023-03-27T01:15:02.178Z,98592.50
2023-03-27T01:18:05.151Z,98597.63
2023-03-27T01:21:31.045Z,98601.19
2023-03-27T01:24:42.629Z,98602.12
2023-03-27T01:28:08.552Z,98605.53
2023-03-27T01:31:18.353Z,98598.56
2023-03-27T01:35:01.821Z,98595.91
2023-03-27T01:38:31.985Z,98604.03
2023-03-27T01:42:22.823Z,98595.28
2023-03-27T01:45:34.547Z,98587.19
2023-03-27T01:48:44.068Z,98584.69
2023-03-27T01:51:52.600Z,98583.06
2023-03-27T01:55:03.629Z,98584.91
2023-03-27T01:58:36.190Z,98584.97
2023-03-27T02:01:43.206Z,98586.78
2023-03-27T02:04:53.562Z,98576.84
2023-03-27T02:08:01.466Z,98574.28
2023-03-27T02:11:06.737Z,98569.91
2023-03-27T02:14:13.273Z,98561.06
2023-03-27T02:17:17.510Z,98548.09
2023-03-27T02:20:21.046Z,98550.03
2023-03-27T02:23:24.039Z,98543.78
2023-03-27T02:26:27.088Z,98543.81
2023-03-27T02:29:38.591Z,98538.25
2023-03-27T02:33:14.965Z,98539.84
2023-03-27T02:36:34.734Z,98524.91
2023-03-27T02:39:43.814Z,98523.16
2023-03-27T02:43:14.732Z,98514.81
2023-03-27T02:46:21.785Z,98513.34
2023-03-27T02:49:49.906Z,98526.78
2023-03-27T02:52:57.482Z,98526.06
2023-03-27T02:56:02.109Z,98524.03
2023-03-27T02:59:11.223Z,98521.56
2023-03-27T03:02:20.065Z,98517.13
2023-03-27T03:05:25.066Z,98505.28
2023-03-27T03:08:30.798Z,98502.72
2023-03-27T03:11:36.503Z,98496.62
2023-03-27T03:14:40.969Z,98488.72
2023-03-27T03:17:45.255Z,98495.09
2023-03-27T03:20:49.408Z,98491.91
2023-03-27T03:23:57.845Z,98492.87
2023-03-27T03:27:04.592Z,98507.19
2023-03-27T03:30:10.108Z,98512.03
2023-03-27T03:33:14.622Z,98517.41
2023-03-27T03:36:17.580Z,98525.62
2023-03-27T03:39:20.580Z,98528.41
2023-03-27T03:42:24.327Z,98527.59
2023-03-27T03:45:27.118Z,98528.47
2023-03-27T03:48:30.111Z,98540.91
2023-03-27T03:51:34.271Z,98536.75
2023-03-27T03:54:38.854Z,98537.66
2023-03-27T03:57:44.987Z,98531.44
2023-03-27T04:00:48.753Z,98533.31
2023-03-27T04:03:55.157Z,98531.84
2023-03-27T04:06:58.381Z,98523.00
2023-03-27T04:10:03.984Z,98518.56
2023-03-27T04:13:07.122Z,98518.56
2023-03-27T04:16:10.406Z,98517.97
2023-03-27T04:19:14.032Z,98508.13
2023-03-27T04:22:17.698Z,98513.59
2023-03-27T04:25:25.381Z,98520.81
2023-03-27T04:28:30.466Z,98531.59
2023-03-27T04:31:34.977Z,98531.72
2023-03-27T04:34:41.267Z,98549.53
2023-03-27T04:37:45.328Z,98553.22
2023-03-27T04:40:49.568Z,98557.66
2023-03-27T04:43:52.495Z,98551.47
2023-03-27T04:46:55.338Z,98552.44
2023-03-27T04:50:00.293Z,98557.72
2023-03-27T04:53:03.635Z,98563.03
2023-03-27T04:56:10.746Z,98571.75
2023-03-27T04:59:15.685Z,98581.75
2023-03-27T05:02:19.117Z,98584.72
2023-03-27T05:05:23.145Z,98592.84
2023-03-27T05:08:27.401Z,98595.28
2023-03-27T05:11:30.553Z,98602.31
2023-03-27T05:14:33.454Z,98612.94
2023-03-27T05:17:42.008Z,98609.53
2023-03-27T05:20:49.038Z,98610.22
2023-03-27T05:23:52.274Z,98603.88
2023-03-27T05:26:57.748Z,98609.28
2023-03-27T05:30:00.938Z,98611.94
2023-03-27T05:33:03.842Z,98623.56
2023-03-27T05:36:07.173Z,98619.09
2023-03-27T05:39:11.171Z,98619.28
2023-03-27T05:42:15.801Z,98627.41
2023-03-27T05:45:19.095Z,98625.75
2023-03-27T05:48:22.452Z,98625.75
2023-03-27T05:51:25.774Z,98621.37
2023-03-27T05:54:28.945Z,98624.88
2023-03-27T05:57:31.788Z,98615.81
2023-03-27T06:00:36.456Z,98625.47
2023-03-27T06:03:39.655Z,98614.59
2023-03-27T06:06:45.574Z,98616.22
2023-03-27T06:09:49.465Z,98622.47
2023-03-27T06:13:05.225Z,98615.16
2023-03-27T06:16:09.241Z,98621.16
2023-03-27T06:19:13.817Z,98633.62
2023-03-27T06:22:19.101Z,98627.41
2023-03-27T06:25:24.122Z,98630.03
2023-03-27T06:28:27.662Z,98627.59
2023-03-27T06:31:30.429Z,98638.38
2023-03-27T06:34:37.251Z,98636.50
2023-03-27T06:37:41.682Z,98638.38
2023-03-27T06:40:45.552Z,98642.50
2023-03-27T06:43:49.259Z,98652.41
2023-03-27T06:46:57.585Z,98644.28
2023-03-27T06:50:01.458Z,98650.56
2023-03-27T06:53:10.048Z,98654.75
2023-03-27T06:56:20.625Z,98656.38
2023-03-27T06:59:25.173Z,98647.16
2023-03-27T07:02:30.562Z,98646.28
2023-03-27T07:05:41.027Z,98651.59
2023-03-27T07:08:45.471Z,98672.03
2023-03-27T07:11:52.161Z,98662.19
2023-03-27T07:14:55.697Z,98658.38
2023-03-27T07:18:04.300Z,98651.25
2023-03-27T07:21:08.329Z,98664.47
2023-03-27T07:24:11.880Z,98660.94
2023-03-27T07:27:14.829Z,98681.50
2023-03-27T07:30:18.516Z,98682.06
2023-03-27T07:33:21.638Z,98667.03
2023-03-27T07:36:25.293Z,98688.56
2023-03-27T07:39:28.367Z,98696.72
2023-03-27T07:42:31.704Z,98689.25
2023-03-27T07:45:35.696Z,98690.47
2023-03-27T07:48:39.414Z,98694.19
2023-03-27T07:51:42.598Z,98709.34
2023-03-27T07:54:48.286Z,98713.75
2023-03-27T07:58:00.749Z,98702.19
2023-03-27T08:01:06.181Z,98716.25
2023-03-27T08:04:11.176Z,98717.25
2023-03-27T08:07:14.851Z,98717.81
2023-03-27T08:10:18.094Z,98713.19
2023-03-27T08:13:22.351Z,98705.13
2023-03-27T08:16:29.124Z,98695.22
2023-03-27T08:19:33.772Z,98725.94
2023-03-27T08:22:38.517Z,98694.12
2023-03-27T08:25:50.701Z,98698.22
2023-03-27T08:28:54.449Z,98722.88
2023-03-27T08:31:58.226Z,98710.44
2023-03-27T08:35:01.528Z,98723.00
2023-03-27T08:38:07.449Z,98714.06
2023-03-27T08:41:33.885Z,98713.34
2023-03-27T08:44:38.634Z,98732.25
2023-03-27T08:47:47.652Z,98738.25
2023-03-27T08:50:53.295Z,98745.44
2023-03-27T08:54:32.762Z,98735.94
2023-03-27T08:57:35.642Z,98731.47
2023-03-27T09:00:40.788Z,98738.09
2023-03-27T09:03:58.856Z,98723.16
2023-03-27T09:07:08.857Z,98721.94
2023-03-27T09:10:15.969Z,98729.53
2023-03-27T09:13:23.300Z,98728.31
2023-03-27T09:16:49.241Z,98731.03
2023-03-27T09:20:00.718Z,98716.75
2023-03-27T09:23:25.227Z,98725.81
2023-03-27T09:26:36.779Z,98723.38
2023-03-27T09:30:05.049Z,98736.56
2023-03-27T09:33:13.201Z,98746.62
2023-03-27T09:36:17.478Z,98735.50
2023-03-27T09:39:26.937Z,98740.69
2023-03-27T09:42:37.156Z,98736.94
2023-03-27T09:45:42.046Z,98749.34
2023-03-27T09:49:11.803Z,98750.91
2023-03-27T09:52:45.327Z,98737.94
2023-03-27T09:56:07.365Z,98745.00
2023-03-27T09:59:32.350Z,98762.38
2023-03-27T10:02:37.769Z,98760.31
2023-03-27T10:05:41.777Z,98755.44
2023-03-27T10:08:49.996Z,98789.56
2023-03-27T10:12:05.753Z,98775.94
2023-03-27T10:15:33.216Z,98787.81
2023-03-27T10:18:42.475Z,98812.16
2023-03-27T10:21:46.041Z,98824.81
2023-03-27T10:24:49.737Z,98855.56
2023-03-27T10:27:53.660Z,98866.28
2023-03-27T10:31:29.773Z,98832.09
2023-03-27T10:34:39.989Z,98910.37
2023-03-27T10:37:49.932Z,98935.56
2023-03-27T10:40:56.681Z,98922.22
2023-03-27T10:44:25.929Z,98959.50
2023-03-27T10:47:33.530Z,98905.16
2023-03-27T10:50:45.894Z,98967.56
2023-03-27T10:53:57.947Z,98986.06
2023-03-27T10:57:02.720Z,98982.09
2023-03-27T11:00:21.226Z,98991.34
2023-03-27T11:03:34.615Z,99026.88
2023-03-27T11:06:40.991Z,99043.31
2023-03-27T11:09:57.492Z,99051.47
2023-03-27T11:13:10.060Z,99062.50
2023-03-27T11:16:19.706Z,99109.19
2023-03-27T11:19:43.230Z,99120.12
2023-03-27T11:22:52.760Z,99130.22
2023-03-27T11:26:00.613Z,99123.28
2023-03-27T11:29:09.717Z,99129.44
2023-03-27T11:32:23.360Z,99154.87
2023-03-27T11:35:35.340Z,99174.41
2023-03-27T11:38:43.966Z,99181.72
2023-03-27T11:41:59.465Z,99216.59
2023-03-27T11:45:04.733Z,99214.88
2023-03-27T11:48:28.329Z,99197.16
2023-03-27T11:51:41.820Z,99234.56
2023-03-27T11:55:06.704Z,99231.00
2023-03-27T11:58:16.181Z,99241.81
2023-03-27T12:01:39.743Z,99265.88
2023-03-27T12:05:20.986Z,99286.31
2023-03-27T12:09:00.044Z,99277.50
2023-03-27T12:12:23.501Z,99328.16
2023-03-27T12:16:02.606Z,99327.41
2023-03-27T12:19:38.585Z,99337.28
2023-03-27T12:22:57.363Z,99353.28
2023-03-27T12:26:05.265Z,99361.31
2023-03-27T12:29:24.447Z,99361.31
2023-03-27T12:33:00.654Z,99381.78
2023-03-27T12:36:12.516Z,99388.00
2023-03-27T12:39:22.480Z,99388.88
2023-03-27T12:42:50.668Z,99400.41
2023-03-27T12:46:14.621Z,99411.06
2023-03-27T12:49:17.646Z,99441.19
2023-03-27T12:52:21.282Z,99406.59
2023-03-27T12:55:36.258Z,99418.06
2023-03-27T12:58:43.405Z,99428.69
2023-03-27T13:02:04.821Z,99447.31
2023-03-27T13:05:26.289Z,99440.22
2023-03-27T13:08:51.443Z,99465.91
2023-03-27T13:12:13.930Z,99467.66
2023-03-27T13:15:34.964Z,99481.75
2023-03-27T13:19:12.683Z,99484.47
2023-03-27T13:22:36.921Z,99499.56
2023-03-27T13:25:50.554Z,99474.75
2023-03-27T13:28:54.548Z,99496.03
2023-03-27T13:32:31.924Z,99495.94
2023-03-27T13:36:02.783Z,99448.84
2023-03-27T13:39:18.425Z,99491.50
2023-03-27T13:42:25.795Z,99476.47
2023-03-27T13:45:38.531Z,99521.75
2023-03-27T13:49:05.097Z,99518.19
2023-03-27T13:52:20.587Z,99496.94
2023-03-27T13:55:34.820Z,99525.38
2023-03-27T13:59:28.076Z,99534.31
2023-03-27T14:02:56.345Z,99527.22
2023-03-27T14:06:27.805Z,99509.56
2023-03-27T14:10:09.517Z,99554.84
2023-03-27T14:13:27.600Z,99556.63
2023-03-27T14:16:55.048Z,99550.44
2023-03-27T14:20:11.584Z,99527.28
2023-03-27T14:23:29.908Z,99541.50
2023-03-27T14:26:33.990Z,99537.91
2023-03-27T14:29:38.149Z,99575.22
2023-03-27T14:32:43.149Z,99580.50
2023-03-27T14:36:17.391Z,99595.59
2023-03-27T14:39:23.968Z,99584.91
2023-03-27T14:42:31.282Z,99592.00
2023-03-27T14:45:37.939Z,99593.78
2023-03-27T14:48:42.611Z,99582.19
2023-03-27T14:51:48.224Z,99611.59
2023-03-27T14:54:55.504Z,99608.88
2023-03-27T14:58:11.091Z,99615.16
2023-03-27T15:01:17.278Z,99615.16
2023-03-27T15:04:26.009Z,99607.16
2023-03-27T15:07:34.915Z,99658.75
2023-03-27T15:10:50.273Z,99623.16
2023-03-27T15:13:56.317Z,99660.53
2023-03-27T15:17:06.975Z,99678.31
2023-03-27T15:20:14.521Z,99660.50
2023-03-27T15:23:23.130Z,99664.94
2023-03-27T15:26:31.632Z,99684.50
2023-03-27T15:29:47.732Z,99690.75
2023-03-27T15:32:53.367Z,99673.81
2023-03-27T15:35:57.191Z,99671.16
2023-03-27T15:39:01.292Z,99684.50
2023-03-27T15:42:12.047Z,99705.81
2023-03-27T15:45:39.996Z,99726.31
2023-03-27T15:48:45.672Z,99715.59
2023-03-27T15:51:50.124Z,99722.69
2023-03-27T15:54:54.869Z,99730.72
2023-03-27T15:57:58.280Z,99739.63
2023-03-27T16:01:03.503Z,99737.88
2023-03-27T16:04:40.765Z,99745.00
2023-03-27T16:07:47.352Z,99732.53
2023-03-27T16:10:51.096Z,99758.31
2023-03-27T16:13:59.257Z,99750.28
2023-03-27T16:17:09.015Z,99767.19
2023-03-27T16:20:13.481Z,99789.47
2023-03-27T16:23:19.519Z,99790.34
2023-03-27T16:26:26.335Z,99783.22
2023-03-27T16:29:29.289Z,99796.56
2023-03-27T16:32:32.003Z,99807.28
2023-03-27T16:35:35.113Z,99793.06
2023-03-27T16:38:40.985Z,99802.84
2023-03-27T16:41:44.065Z,99817.97
2023-03-27T16:44:47.143Z,99817.97
2023-03-27T16:47:53.166Z,99822.41
2023-03-27T16:50:57.533Z,99833.09
2023-03-27T16:54:01.561Z,99810.84
2023-03-27T16:57:04.510Z,99817.97
2023-03-27T17:00:12.395Z,99829.50
2023-03-27T17:03:16.594Z,99848.19
2023-03-27T17:06:20.858Z,99869.53
2023-03-27T17:09:23.961Z,99865.97
2023-03-27T17:12:28.900Z,99863.28
2023-03-27T17:15:35.847Z,99881.97
2023-03-27T17:18:38.918Z,99897.97
2023-03-27T17:21:42.037Z,99897.09
2023-03-27T17:24:56.252Z,99902.44
2023-03-27T17:28:00.299Z,99889.09
2023-03-27T17:31:05.154Z,99880.19
2023-03-27T17:34:08.312Z,99896.19
2023-03-27T17:37:13.734Z,99909.50
2023-03-27T17:40:17.337Z,99905.91
2023-03-27T17:43:20.745Z,99925.50
2023-03-27T17:46:23.537Z,99935.25
2023-03-27T17:49:27.890Z,99943.19
2023-03-27T17:52:31.537Z,99968.03
2023-03-27T17:55:37.240Z,99965.38
2023-03-27T17:58:40.125Z,99963.59
2023-03-27T18:01:47.300Z,99961.78
2023-03-27T18:04:52.189Z,99987.53
2023-03-27T18:07:54.661Z,99982.16
2023-03-27T18:10:58.363Z,100020.37
2023-03-27T18:14:01.054Z,99984.72
2023-03-27T18:17:04.110Z,100016.72
2023-03-27T18:20:10.598Z,100015.81
2023-03-27T18:23:16.313Z,99992.75
2023-03-27T18:26:19.059Z,100022.84
2023-03-27T18:29:24.224Z,100027.25
2023-03-27T18:32:27.364Z,100024.50
2023-03-27T18:35:32.117Z,100022.78
2023-03-27T18:38:35.067Z,100025.53
2023-03-27T18:41:39.785Z,100046.78
2023-03-27T18:44:42.580Z,100039.63
2023-03-27T18:47:45.900Z,100039.69
2023-03-27T18:50:59.970Z,100053.84
2023-03-27T18:54:03.062Z,100066.16
2023-03-27T18:57:06.047Z,100071.37
2023-03-27T19:00:09.926Z,100083.78
2023-03-27T19:03:18.301Z,100076.66
2023-03-27T19:06:21.683Z,100071.47
2023-03-27T19:09:34.455Z,100077.56
2023-03-27T19:12:43.810Z,100092.75
2023-03-27T19:15:49.063Z,100076.66
2023-03-27T19:18:53.674Z,100089.06
2023-03-27T19:21:57.674Z,100087.38
2023-03-27T19:25:02.103Z,100087.34
2023-03-27T19:28:06.406Z,100091.69
2023-03-27T19:31:12.284Z,100092.53
2023-03-27T19:34:15.584Z,100094.25
2023-03-27T19:37:18.700Z,100106.59
2023-03-27T19:40:23.444Z,100097.87
2023-03-27T19:43:26.691Z,100105.06
2023-03-27T19:46:29.639Z,100118.28
2023-03-27T19:49:32.905Z,100098.88
2023-03-27T19:52:36.248Z,100102.34
2023-03-27T19:55:39.539Z,100096.03
2023-03-27T19:58:42.209Z,100120.91
2023-03-27T20:01:45.382Z,100138.63
2023-03-27T20:04:48.745Z,100137.59
2023-03-27T20:07:51.689Z,100120.84
2023-03-27T20:10:57.828Z,100116.34
2023-03-27T20:14:01.096Z,100115.47
2023-03-27T20:17:06.307Z,100133.09
2023-03-27T20:20:11.672Z,100131.97
2023-03-27T20:23:14.786Z,100137.03
2023-03-27T20:26:17.704Z,100130.66
2023-03-27T20:29:25.520Z,100132.63
2023-03-27T20:32:28.501Z,100112.41
2023-03-27T20:35:33.341Z,100130.00
2023-03-27T20:38:36.590Z,100135.91
2023-03-27T20:41:40.016Z,100131.16
2023-03-27T20:44:44.244Z,100141.56
2023-03-27T20:47:48.977Z,100151.34
2023-03-27T20:50:52.615Z,100141.28
2023-03-27T20:53:57.362Z,100147.44
2023-03-27T20:57:00.550Z,100144.66
2023-03-27T21:00:07.840Z,100150.81
2023-03-27T21:03:12.159Z,100156.19
2023-03-27T21:06:19.873Z,100147.44
2023-03-27T21:09:23.970Z,100142.09
2023-03-27T21:12:27.814Z,100146.47
2023-03-27T21:15:30.841Z,100157.91
2023-03-27T21:18:33.640Z,100155.34
2023-03-27T21:21:36.776Z,100166.88
2023-03-27T21:24:39.795Z,100166.75
2023-03-27T21:27:43.143Z,100168.47
2023-03-27T21:30:48.535Z,100164.66
2023-03-27T21:33:51.680Z,100173.66
2023-03-27T21:36:54.631Z,100181.56
2023-03-27T21:39:57.388Z,100184.22
2023-03-27T21:43:00.499Z,100185.13
2023-03-27T21:46:03.903Z,100192.03
2023-03-27T21:49:06.845Z,100187.69
2023-03-27T21:52:09.826Z,100186.69
2023-03-27T21:55:12.734Z,100192.75
2023-03-27T21:58:15.609Z,100196.47
2023-03-27T22:01:19.116Z,100200.78
2023-03-27T22:04:22.610Z,100207.91
2023-03-27T22:07:25.333Z,100207.94
2023-03-27T22:10:29.449Z,100210.41
2023-03-27T22:13:32.258Z,100206.91
2023-03-27T22:16:35.329Z,100204.09
2023-03-27T22:19:38.272Z,100209.53
2023-03-27T22:22:41.732Z,100215.41
2023-03-27T22:25:51.636Z,100208.25
2023-03-27T22:28:54.507Z,100213.69
2023-03-27T22:31:57.112Z,100215.41
2023-03-27T22:34:59.967Z,100219.63
2023-03-27T22:38:02.524Z,100225.75
2023-03-27T22:41:09.625Z,100223.97
2023-03-27T22:44:12.290Z,100224.59
2023-03-27T22:47:15.396Z,100225.66
2023-03-27T22:50:17.901Z,100230.22
2023-03-27T22:53:22.207Z,100238.91
2023-03-27T22:56:24.956Z,100239.81
2023-03-27T22:59:27.739Z,100243.41
2023-03-27T23:02:30.520Z,100232.69
2023-03-27T23:05:43.568Z,100242.44
2023-03-27T23:08:46.952Z,100246.78
2023-03-27T23:11:49.766Z,100239.53
2023-03-27T23:14:52.292Z,100264.25
2023-03-27T23:17:55.577Z,100261.56
2023-03-27T23:21:01.939Z,100265.94
2023-03-27T23:24:05.326Z,100263.22
2023-03-27T23:27:08.584Z,100267.63
2023-03-27T23:30:12.526Z,100269.31
2023-03-27T23:33:17.160Z,100276.34
2023-03-27T23:36:24.574Z,100277.03
2023-03-27T23:39:27.363Z,100285.69
2023-03-27T23:42:31.020Z,100295.28
2023-03-27T23:45:33.581Z,100296.00
2023-03-27T23:48:37.975Z,100294.06
2023-03-27T23:51:40.873Z,100306.34
2023-03-27T23:54:43.852Z,100310.78
2023-03-27T23:57:46.743Z,100304.50
